createdAt,value
2023-04-05T00:01:12.354Z,101867.28
2023-04-05T00:03:44.266Z,101873.44
2023-04-05T00:06:16.713Z,101867.69
2023-04-05T00:08:50.234Z,101867.78
2023-04-05T00:11:29.932Z,101811.59
2023-04-05T00:14:03.063Z,101795.38
2023-04-05T00:16:36.711Z,101861.44
2023-04-05T00:19:08.148Z,101781.94
2023-04-05T00:21:39.686Z,101869.25
2023-04-05T00:24:15.365Z,101879.16
2023-04-05T00:26:46.869Z,101861.53
2023-04-05T00:29:18.248Z,101786.41
2023-04-05T00:31:49.711Z,101794.38
2023-04-05T00:34:21.155Z,101881.75
2023-04-05T00:36:52.868Z,101872.00
2023-04-05T00:39:24.187Z,101846.78
2023-04-05T00:41:56.340Z,101869.25
2023-04-05T00:44:29.037Z,101877.22
2023-04-05T00:47:02.194Z,101866.66
2023-04-05T00:49:35.148Z,101873.22
2023-04-05T00:52:06.808Z,101844.25
2023-04-05T00:54:39.207Z,101851.47
2023-04-05T00:57:11.133Z,101865.84
2023-04-05T00:59:43.478Z,101846.19
2023-04-05T01:02:55.318Z,101875.34
2023-04-05T01:05:38.576Z,101877.81
2023-04-05T01:08:18.162Z,101857.09
2023-04-05T01:10:55.039Z,101842.81
2023-04-05T01:13:26.656Z,101857.09
2023-04-05T01:15:58.511Z,101874.97
2023-04-05T01:18:30.962Z,101877.34
2023-04-05T01:21:23.733Z,101839.97
2023-04-05T01:24:21.159Z,101857.53
2023-04-05T01:26:57.287Z,101875.41
2023-04-05T01:30:03.107Z,101876.72
2023-04-05T01:32:40.736Z,101886.88
2023-04-05T01:35:29.351Z,101879.56
2023-04-05T01:38:03.665Z,101835.75
2023-04-05T01:40:37.157Z,101854.69
2023-04-05T01:43:17.044Z,101865.97
2023-04-05T01:45:48.486Z,101850.22
2023-04-05T01:48:19.888Z,101817.75
2023-04-05T01:50:51.269Z,101826.66
2023-04-05T01:53:22.726Z,101828.53
2023-04-05T01:55:54.140Z,101812.22
2023-04-05T01:58:28.194Z,101826.34
2023-04-05T02:00:59.688Z,101784.69
2023-04-05T02:03:31.330Z,101810.09
2023-04-05T02:06:02.966Z,101815.31
2023-04-05T02:08:34.356Z,101813.53
2023-04-05T02:11:05.711Z,101813.34
2023-04-05T02:13:37.088Z,101716.16
2023-04-05T02:16:08.745Z,101787.47
2023-04-05T02:18:40.173Z,101816.59
2023-04-05T02:21:11.603Z,101791.50
2023-04-05T02:23:44.063Z,101809.22
2023-04-05T02:26:16.070Z,101751.16
2023-04-05T02:28:47.627Z,101827.72
2023-04-05T02:31:19.150Z,101822.78
2023-04-05T02:33:51.396Z,101754.03
2023-04-05T02:36:23.005Z,101806.78
2023-04-05T02:38:55.205Z,101806.53
2023-04-05T02:41:26.989Z,101813.66
2023-04-05T02:43:59.959Z,101793.13
2023-04-05T02:46:31.384Z,101823.25
2023-04-05T02:49:02.747Z,101786.72
2023-04-05T02:51:34.472Z,101787.59
2023-04-05T02:54:06.159Z,101805.94
2023-04-05T02:56:37.689Z,101795.31
2023-04-05T02:59:09.267Z,101720.16
2023-04-05T03:01:44.219Z,101804.78
2023-04-05T03:04:17.401Z,101794.97
2023-04-05T03:06:51.234Z,101722.41
2023-04-05T03:09:23.319Z,101818.59
2023-04-05T03:11:54.939Z,101795.47
2023-04-05T03:14:26.372Z,101797.91
2023-04-05T03:16:57.925Z,101801.66
2023-04-05T03:19:29.368Z,101786.38
2023-04-05T03:22:00.922Z,101781.00
2023-04-05T03:24:32.757Z,101773.06
2023-04-05T03:27:06.345Z,101788.06
2023-04-05T03:29:37.974Z,101780.22
2023-04-05T03:32:11.875Z,101776.28
2023-04-05T03:34:44.024Z,101775.22
2023-04-05T03:37:15.487Z,101687.72
2023-04-05T03:39:46.910Z,101775.31
2023-04-05T03:42:18.309Z,101783.28
2023-04-05T03:44:53.184Z,101780.41
2023-04-05T03:47:24.927Z,101737.00
2023-04-05T03:49:57.401Z,101774.16
2023-04-05T03:52:28.779Z,101782.41
2023-04-05T03:55:00.555Z,101772.84
2023-04-05T03:57:32.029Z,101793.47
2023-04-05T04:00:14.121Z,101770.09
2023-04-05T04:02:47.848Z,101762.13
2023-04-05T04:05:21.262Z,101677.38
2023-04-05T04:07:53.194Z,101793.94
2023-04-05T04:10:24.595Z,101790.13
2023-04-05T04:12:56.996Z,101780.63
2023-04-05T04:15:28.636Z,101786.81
2023-04-05T04:18:00.126Z,101750.09
2023-04-05T04:20:31.654Z,101770.97
2023-04-05T04:23:04.285Z,101718.28
2023-04-05T04:25:38.151Z,101790.53
2023-04-05T04:28:09.651Z,101802.72
2023-04-05T04:30:43.337Z,101765.19
2023-04-05T04:33:14.826Z,101783.84
2023-04-05T04:35:47.397Z,101787.09
2023-04-05T04:38:20.654Z,101793.34
2023-04-05T04:40:53.950Z,101767.59
2023-04-05T04:43:28.088Z,101775.28
2023-04-05T04:45:59.680Z,101767.97
2023-04-05T04:48:34.889Z,101768.16
2023-04-05T04:51:06.555Z,101765.47
2023-04-05T04:53:38.096Z,101773.59
2023-04-05T04:56:10.032Z,101787.81
2023-04-05T04:58:41.968Z,101758.31
2023-04-05T05:01:13.409Z,101776.19
2023-04-05T05:03:44.844Z,101779.22
2023-04-05T05:06:24.974Z,101757.94
2023-04-05T05:08:56.428Z,101774.13
2023-04-05T05:11:28.913Z,101779.66
2023-04-05T05:14:01.307Z,101738.56
2023-04-05T05:16:33.814Z,101684.44
2023-04-05T05:19:05.409Z,101788.28
2023-04-05T05:21:36.980Z,101745.94
2023-04-05T05:24:09.984Z,101757.88
2023-04-05T05:26:41.953Z,101778.66
2023-04-05T05:29:13.419Z,101783.22
2023-04-05T05:31:45.028Z,101776.66
2023-04-05T05:34:17.526Z,101791.16
2023-04-05T05:36:50.938Z,101781.03
2023-04-05T05:39:23.579Z,101797.34
2023-04-05T05:41:54.953Z,101770.50
2023-04-05T05:44:26.317Z,101733.50
2023-04-05T05:46:58.621Z,101764.47
2023-04-05T05:49:31.152Z,101793.09
2023-04-05T05:52:03.934Z,101740.63
2023-04-05T05:54:35.713Z,101703.19
2023-04-05T05:57:07.071Z,101706.81
2023-04-05T05:59:38.733Z,101757.25
2023-04-05T06:02:10.600Z,101772.28
2023-04-05T06:04:42.098Z,101770.81
2023-04-05T06:07:13.681Z,101762.00
2023-04-05T06:09:45.373Z,101751.38
2023-04-05T06:12:16.704Z,101760.19
2023-04-05T06:14:48.386Z,101754.59
2023-04-05T06:17:19.761Z,101744.66
2023-04-05T06:19:51.877Z,101709.91
2023-04-05T06:22:23.631Z,101753.19
2023-04-05T06:24:55.032Z,101707.50
2023-04-05T06:27:26.399Z,101763.41
2023-04-05T06:30:00.289Z,101768.03
2023-04-05T06:32:31.767Z,101776.72
2023-04-05T06:35:06.351Z,101767.50
2023-04-05T06:37:37.724Z,101742.97
2023-04-05T06:40:09.506Z,101756.75
2023-04-05T06:42:41.230Z,101762.69
2023-04-05T06:45:12.642Z,101764.31
2023-04-05T06:47:44.109Z,101774.53
2023-04-05T06:50:15.551Z,101754.47
2023-04-05T06:52:46.941Z,101758.22
2023-04-05T06:55:18.467Z,101751.56
2023-04-05T06:57:49.801Z,101762.41
2023-04-05T07:00:21.369Z,101752.41
2023-04-05T07:02:52.846Z,101753.91
2023-04-05T07:05:24.370Z,101733.38
2023-04-05T07:07:57.743Z,101740.41
2023-04-05T07:10:29.290Z,101742.88
2023-04-05T07:13:00.868Z,101761.38
2023-04-05T07:15:32.362Z,101667.94
2023-04-05T07:18:04.015Z,101700.44
2023-04-05T07:20:35.777Z,101728.16
2023-04-05T07:23:07.292Z,101737.38
2023-04-05T07:25:40.535Z,101729.69
2023-04-05T07:28:11.891Z,101738.81
2023-04-05T07:30:43.386Z,101724.94
2023-04-05T07:33:15.131Z,101742.88
2023-04-05T07:35:52.555Z,101736.13
2023-04-05T07:38:24.114Z,101744.47
2023-04-05T07:40:55.644Z,101729.63
2023-04-05T07:43:27.049Z,101739.63
2023-04-05T07:46:05.573Z,101727.53
2023-04-05T07:48:36.920Z,101726.03
2023-04-05T07:51:10.135Z,101674.91
2023-04-05T07:53:42.781Z,101701.59
2023-04-05T07:56:14.367Z,101739.75
2023-04-05T07:58:47.439Z,101723.06
2023-04-05T08:01:19.163Z,101724.94
2023-04-05T08:03:50.581Z,101724.97
2023-04-05T08:06:21.985Z,101729.38
2023-04-05T08:08:53.407Z,101707.34
2023-04-05T08:11:26.264Z,101732.16
2023-04-05T08:13:58.092Z,101717.16
2023-04-05T08:16:29.485Z,101725.09
2023-04-05T08:19:01.129Z,101735.69
2023-04-05T08:21:32.552Z,101732.16
2023-04-05T08:24:04.062Z,101717.13
2023-04-05T08:26:35.727Z,101720.72
2023-04-05T08:29:07.353Z,101739.28
2023-04-05T08:31:38.771Z,101749.91
2023-04-05T08:34:10.226Z,101726.03
2023-04-05T08:36:41.692Z,101702.13
2023-04-05T08:39:15.456Z,101703.88
2023-04-05T08:41:59.183Z,101707.41
2023-04-05T08:44:31.598Z,101704.75
2023-04-05T08:47:03.040Z,101715.38
2023-04-05T08:49:34.681Z,101666.75
2023-04-05T08:52:06.117Z,101713.63
2023-04-05T08:54:38.579Z,101637.59
2023-04-05T08:57:10.586Z,101705.69
2023-04-05T08:59:44.207Z,101701.22
2023-04-05T09:02:21.866Z,101665.88
2023-04-05T09:04:53.896Z,101640.22
2023-04-05T09:07:30.524Z,101712.69
2023-04-05T09:10:03.322Z,101665.00
2023-04-05T09:12:35.832Z,101682.63
2023-04-05T09:15:07.564Z,101699.44
2023-04-05T09:17:41.616Z,101696.84
2023-04-05T09:20:13.081Z,101668.50
2023-04-05T09:22:46.213Z,101707.38
2023-04-05T09:25:32.656Z,101718.88
2023-04-05T09:28:05.555Z,101703.00
2023-04-05T09:30:37.355Z,101703.00
2023-04-05T09:33:10.387Z,101709.22
2023-04-05T09:35:42.154Z,101706.56
2023-04-05T09:38:13.581Z,101681.81
2023-04-05T09:40:47.143Z,101685.31
2023-04-05T09:43:40.911Z,101701.28
2023-04-05T09:46:33.979Z,101653.47
2023-04-05T09:49:07.810Z,101695.94
2023-04-05T09:51:39.409Z,101672.94
2023-04-05T09:54:11.408Z,101677.38
2023-04-05T09:56:54.902Z,101700.34
2023-04-05T09:59:26.486Z,101693.19
2023-04-05T10:01:57.871Z,101697.50
2023-04-05T10:04:41.926Z,101616.91
2023-04-05T10:07:14.868Z,101702.47
2023-04-05T10:09:48.198Z,101690.94
2023-04-05T10:12:28.307Z,101680.31
2023-04-05T10:15:00.130Z,101658.25
2023-04-05T10:17:39.090Z,101669.00
2023-04-05T10:20:17.396Z,101647.00
2023-04-05T10:22:51.820Z,101670.84
2023-04-05T10:25:59.621Z,101669.97
2023-04-05T10:28:33.960Z,101647.03
2023-04-05T10:31:37.262Z,101643.53
2023-04-05T10:34:20.358Z,101612.66
2023-04-05T10:37:28.273Z,101651.44
2023-04-05T10:40:03.382Z,101595.81
2023-04-05T10:42:45.789Z,101668.28
2023-04-05T10:45:19.868Z,101568.44
2023-04-05T10:48:15.758Z,101601.84
2023-04-05T10:50:48.486Z,101624.56
2023-04-05T10:53:22.111Z,101555.66
2023-04-05T10:55:55.949Z,101634.94
2023-04-05T10:58:28.988Z,101632.91
2023-04-05T11:01:01.514Z,101630.63
2023-04-05T11:03:49.118Z,101539.25
2023-04-05T11:06:30.458Z,101640.69
2023-04-05T11:09:17.049Z,101619.13
2023-04-05T11:11:50.858Z,101621.91
2023-04-05T11:14:25.981Z,101628.38
2023-04-05T11:16:58.780Z,101547.44
2023-04-05T11:19:45.097Z,101632.03
2023-04-05T11:22:29.158Z,101608.00
2023-04-05T11:25:03.200Z,101573.69
2023-04-05T11:27:37.472Z,101618.97
2023-04-05T11:30:09.530Z,101608.50
2023-04-05T11:32:43.464Z,101566.28
2023-04-05T11:35:15.928Z,101627.69
2023-04-05T11:38:17.440Z,101551.50
2023-04-05T11:40:49.234Z,101590.56
2023-04-05T11:43:27.666Z,101591.72
2023-04-05T11:46:03.091Z,101590.03
2023-04-05T11:48:34.851Z,101578.16
2023-04-05T11:51:10.804Z,101566.88
2023-04-05T11:53:47.132Z,101565.22
2023-04-05T11:56:20.013Z,101580.31
2023-04-05T11:58:51.649Z,101583.84
2023-04-05T12:01:23.177Z,101584.91
2023-04-05T12:03:56.094Z,101533.81
2023-04-05T12:06:27.594Z,101563.03
2023-04-05T12:08:59.205Z,101533.66
2023-04-05T12:11:33.811Z,101565.94
2023-04-05T12:14:05.194Z,101557.47
2023-04-05T12:16:36.844Z,101538.13
2023-04-05T12:19:08.221Z,101533.91
2023-04-05T12:21:39.945Z,101553.72
2023-04-05T12:24:11.470Z,101512.81
2023-04-05T12:26:42.999Z,101549.72
2023-04-05T12:29:14.396Z,101520.59
2023-04-05T12:31:46.996Z,101539.66
2023-04-05T12:34:27.759Z,101552.06
2023-04-05T12:37:00.584Z,101516.72
2023-04-05T12:39:33.259Z,101458.75
2023-04-05T12:42:04.828Z,101507.13
2023-04-05T12:44:36.597Z,101518.25
2023-04-05T12:47:10.945Z,101520.94
2023-04-05T12:49:42.582Z,101484.91
2023-04-05T12:52:19.841Z,101518.81
2023-04-05T12:54:55.560Z,101433.16
2023-04-05T12:57:33.390Z,101447.53
2023-04-05T13:00:05.537Z,101430.44
2023-04-05T13:02:36.976Z,101446.81
2023-04-05T13:05:08.806Z,101500.19
2023-04-05T13:07:40.553Z,101430.97
2023-04-05T13:10:11.975Z,101492.84
2023-04-05T13:12:43.761Z,101455.88
2023-04-05T13:15:16.638Z,101459.56
2023-04-05T13:17:50.361Z,101489.56
2023-04-05T13:20:22.003Z,101481.56
2023-04-05T13:22:53.329Z,101469.28
2023-04-05T13:25:24.992Z,101454.28
2023-04-05T13:27:56.408Z,101437.59
2023-04-05T13:30:27.713Z,101476.53
2023-04-05T13:32:59.153Z,101466.88
2023-04-05T13:35:30.979Z,101430.00
2023-04-05T13:38:04.670Z,101463.31
2023-04-05T13:40:36.622Z,101391.59
2023-04-05T13:43:08.307Z,101444.81
2023-04-05T13:45:39.902Z,101454.59
2023-04-05T13:48:11.529Z,101420.25
2023-04-05T13:50:43.334Z,101464.22
2023-04-05T13:53:14.800Z,101443.94
2023-04-05T13:55:46.304Z,101439.38
2023-04-05T13:58:17.583Z,101444.66
2023-04-05T14:00:48.965Z,101437.28
2023-04-05T14:03:20.551Z,101425.28
2023-04-05T14:05:54.666Z,101382.50
2023-04-05T14:08:26.721Z,101428.56
2023-04-05T14:10:58.333Z,101425.31
2023-04-05T14:13:30.222Z,101449.22
2023-04-05T14:16:02.178Z,101365.94
2023-04-05T14:18:33.513Z,101446.97
2023-04-05T14:21:04.899Z,101435.75
2023-04-05T14:23:36.326Z,101439.91
2023-04-05T14:26:07.892Z,101429.09
2023-04-05T14:28:39.257Z,101388.97
2023-04-05T14:31:10.700Z,101444.66
2023-04-05T14:33:42.087Z,101436.88
2023-04-05T14:36:13.610Z,101422.84
2023-04-05T14:38:44.988Z,101406.19
2023-04-05T14:41:16.550Z,101440.63
2023-04-05T14:43:47.942Z,101351.91
2023-04-05T14:46:19.493Z,101342.34
2023-04-05T14:48:50.987Z,101406.72
2023-04-05T14:51:23.675Z,101446.50
2023-04-05T14:53:55.973Z,101417.69
2023-04-05T14:56:27.783Z,101430.28
2023-04-05T14:58:59.164Z,101430.31
2023-04-05T15:01:30.837Z,101425.09
2023-04-05T15:04:03.837Z,101410.13
2023-04-05T15:06:35.478Z,101398.72
2023-04-05T15:09:06.959Z,101407.47
2023-04-05T15:11:39.296Z,101393.31
2023-04-05T15:14:20.977Z,101418.84
2023-04-05T15:17:00.406Z,101417.94
2023-04-05T15:19:32.075Z,101406.41
2023-04-05T15:22:04.020Z,101329.75
2023-04-05T15:24:37.516Z,101359.72
2023-04-05T15:27:10.250Z,101328.16
2023-04-05T15:29:41.585Z,101405.63
2023-04-05T15:32:12.977Z,101407.50
2023-04-05T15:34:44.347Z,101375.91
2023-04-05T15:37:15.713Z,101408.59
2023-04-05T15:39:48.885Z,101403.28
2023-04-05T15:42:21.800Z,101400.66
2023-04-05T15:44:53.454Z,101367.25
2023-04-05T15:47:26.144Z,101408.66
2023-04-05T15:49:57.554Z,101392.78
2023-04-05T15:52:28.966Z,101386.66
2023-04-05T15:55:00.444Z,101310.97
2023-04-05T15:57:32.103Z,101409.69
2023-04-05T16:00:03.929Z,101390.28
2023-04-05T16:02:37.356Z,101376.19
2023-04-05T16:05:08.993Z,101391.22
2023-04-05T16:07:40.638Z,101347.09
2023-04-05T16:10:12.142Z,101393.72
2023-04-05T16:12:43.595Z,101393.75
2023-04-05T16:15:15.003Z,101370.78
2023-04-05T16:17:46.767Z,101331.19
2023-04-05T16:20:18.411Z,101341.75
2023-04-05T16:22:50.241Z,101382.34
2023-04-05T16:25:21.637Z,101379.72
2023-04-05T16:27:53.010Z,101377.13
2023-04-05T16:30:24.415Z,101370.91
2023-04-05T16:32:56.041Z,101364.69
2023-04-05T16:35:27.465Z,101371.81
2023-04-05T16:37:58.871Z,101370.97
2023-04-05T16:40:30.541Z,101365.75
2023-04-05T16:43:02.942Z,101368.38
2023-04-05T16:45:36.407Z,101365.78
2023-04-05T16:48:09.054Z,101372.88
2023-04-05T16:50:41.602Z,101358.78
2023-04-05T16:53:14.871Z,101355.34
2023-04-05T16:55:46.337Z,101364.22
2023-04-05T16:58:17.914Z,101363.44
2023-04-05T17:00:49.321Z,101362.59
2023-04-05T17:03:21.490Z,101341.47
2023-04-05T17:05:53.283Z,101352.06
2023-04-05T17:08:24.716Z,101364.41
2023-04-05T17:10:56.189Z,101356.50
2023-04-05T17:13:27.598Z,101351.25
2023-04-05T17:15:59.066Z,101342.47
2023-04-05T17:18:30.489Z,101367.19
2023-04-05T17:21:01.859Z,101338.09
2023-04-05T17:23:33.596Z,101368.13
2023-04-05T17:26:05.008Z,101356.69
2023-04-05T17:28:36.328Z,101340.84
2023-04-05T17:31:08.125Z,101354.97
2023-04-05T17:33:40.536Z,101356.81
2023-04-05T17:36:12.763Z,101348.88
2023-04-05T17:38:47.026Z,101350.63
2023-04-05T17:41:18.456Z,101332.13
2023-04-05T17:43:50.034Z,101316.25
2023-04-05T17:46:34.098Z,101360.38
2023-04-05T17:49:11.996Z,101363.91
2023-04-05T17:51:44.523Z,101360.34
2023-04-05T17:54:16.214Z,101324.16
2023-04-05T17:56:48.017Z,101310.91
2023-04-05T17:59:19.444Z,101362.09
2023-04-05T18:01:53.765Z,101358.53
2023-04-05T18:04:26.010Z,101361.16
2023-04-05T18:06:57.462Z,101364.66
2023-04-05T18:09:31.205Z,101327.53
2023-04-05T18:12:02.877Z,101356.63
2023-04-05T18:14:37.071Z,101368.97
2023-04-05T18:17:09.524Z,101361.84
2023-04-05T18:19:41.380Z,101367.03
2023-04-05T18:22:13.792Z,101374.94
2023-04-05T18:24:45.347Z,101294.59
2023-04-05T18:27:16.765Z,101381.91
2023-04-05T18:29:48.428Z,101382.75
2023-04-05T18:32:19.990Z,101361.59
2023-04-05T18:34:51.906Z,101380.09
2023-04-05T18:37:24.094Z,101296.13
2023-04-05T18:39:55.717Z,101374.72
2023-04-05T18:42:27.080Z,101384.34
2023-04-05T18:45:00.339Z,101378.97
2023-04-05T18:47:33.091Z,101356.78
2023-04-05T18:50:09.780Z,101380.63
2023-04-05T18:52:41.361Z,101383.25
2023-04-05T18:55:13.986Z,101303.69
2023-04-05T18:57:45.964Z,101396.34
2023-04-05T19:00:17.581Z,101301.78
2023-04-05T19:02:49.043Z,101347.59
2023-04-05T19:05:21.837Z,101319.38
2023-04-05T19:07:53.244Z,101320.16
2023-04-05T19:10:24.764Z,101398.78
2023-04-05T19:12:56.510Z,101407.53
2023-04-05T19:15:27.903Z,101395.97
2023-04-05T19:18:01.211Z,101397.69
2023-04-05T19:20:32.975Z,101401.97
2023-04-05T19:23:04.464Z,101409.88
2023-04-05T19:25:36.970Z,101404.44
2023-04-05T19:28:08.572Z,101320.34
2023-04-05T19:30:43.617Z,101411.38
2023-04-05T19:33:15.048Z,101414.00
2023-04-05T19:35:47.785Z,101428.88
2023-04-05T19:38:21.092Z,101400.59
2023-04-05T19:40:53.220Z,101419.94
2023-04-05T19:43:26.455Z,101408.34
2023-04-05T19:46:00.333Z,101413.53
2023-04-05T19:48:37.978Z,101394.91
2023-04-05T19:51:11.212Z,101315.22
2023-04-05T19:53:50.655Z,101419.38
2023-04-05T19:56:25.860Z,101336.28
2023-04-05T19:59:03.608Z,101406.94
2023-04-05T20:01:38.705Z,101344.94
2023-04-05T20:04:18.883Z,101335.09
2023-04-05T20:06:56.793Z,101395.22
2023-04-05T20:09:29.766Z,101405.78
2023-04-05T20:12:05.563Z,101405.72
2023-04-05T20:14:45.877Z,101415.41
2023-04-05T20:17:19.000Z,101403.84
2023-04-05T20:20:00.230Z,101403.78
2023-04-05T20:22:32.498Z,101386.03
2023-04-05T20:25:42.167Z,101409.84
2023-04-05T20:28:31.714Z,101407.06
2023-04-05T20:31:06.704Z,101394.63
2023-04-05T20:33:58.539Z,101290.25
2023-04-05T20:36:37.812Z,101323.81
2023-04-05T20:39:09.404Z,101391.13
2023-04-05T20:41:41.195Z,101389.38
2023-04-05T20:44:12.759Z,101405.16
2023-04-05T20:46:44.265Z,101343.13
2023-04-05T20:49:16.433Z,101355.56
2023-04-05T20:51:48.006Z,101382.03
2023-04-05T20:54:23.956Z,101393.47
2023-04-05T20:56:55.662Z,101376.66
2023-04-05T20:59:27.331Z,101381.78
2023-04-05T21:01:58.848Z,101373.81
2023-04-05T21:04:31.019Z,101363.91
2023-04-05T21:07:02.485Z,101359.47
2023-04-05T21:09:34.083Z,101342.53
2023-04-05T21:12:05.927Z,101339.69
2023-04-05T21:14:37.523Z,101353.63
2023-04-05T21:17:09.114Z,101352.56
2023-04-05T21:19:40.699Z,101362.91
2023-04-05T21:22:12.219Z,101351.28
2023-04-05T21:24:43.663Z,101353.81
2023-04-05T21:27:15.317Z,101309.34
2023-04-05T21:29:46.698Z,101357.09
2023-04-05T21:32:18.069Z,101360.50
2023-04-05T21:34:49.875Z,101347.00
2023-04-05T21:37:21.531Z,101356.75
2023-04-05T21:39:52.892Z,101360.94
2023-04-05T21:42:24.591Z,101321.06
2023-04-05T21:44:56.073Z,101350.97
2023-04-05T21:47:27.423Z,101338.69
2023-04-05T21:49:59.110Z,101350.97
2023-04-05T21:52:30.987Z,101339.34
2023-04-05T21:55:02.735Z,101334.03
2023-04-05T21:57:34.166Z,101354.22
2023-04-05T22:00:10.854Z,101281.47
2023-04-05T22:02:42.470Z,101355.84
2023-04-05T22:05:25.647Z,101350.41
2023-04-05T22:08:07.052Z,101341.56
2023-04-05T22:10:38.905Z,101335.28
2023-04-05T22:13:10.523Z,101251.09
2023-04-05T22:15:44.042Z,101332.50
2023-04-05T22:18:15.741Z,101348.47
2023-04-05T22:20:47.196Z,101335.91
2023-04-05T22:23:18.714Z,101326.13
2023-04-05T22:25:51.684Z,101327.81
2023-04-05T22:28:23.514Z,101330.34
2023-04-05T22:30:55.107Z,101241.66
2023-04-05T22:33:26.445Z,101291.91
2023-04-05T22:35:58.164Z,101319.19
2023-04-05T22:38:29.625Z,101346.44
2023-04-05T22:41:01.912Z,101281.59
2023-04-05T22:43:33.318Z,101331.75
2023-04-05T22:46:05.270Z,101328.00
2023-04-05T22:48:36.906Z,101324.38
2023-04-05T22:51:08.532Z,101334.97
2023-04-05T22:53:43.238Z,101331.34
2023-04-05T22:56:14.878Z,101332.06
2023-04-05T22:58:46.497Z,101336.41
2023-04-05T23:01:18.638Z,101307.94
2023-04-05T23:03:50.266Z,101325.69
2023-04-05T23:06:21.604Z,101316.00
2023-04-05T23:08:52.991Z,101317.69
2023-04-05T23:11:24.650Z,101312.38
2023-04-05T23:13:56.259Z,101295.63
2023-04-05T23:16:27.918Z,101301.47
2023-04-05T23:18:59.406Z,101323.56
2023-04-05T23:21:31.395Z,101225.97
2023-04-05T23:24:02.783Z,101273.78
2023-04-05T23:26:34.347Z,101308.13
2023-04-05T23:29:05.819Z,101314.19
2023-04-05T23:31:37.364Z,101292.00
2023-04-05T23:34:09.029Z,101317.44
2023-04-05T23:36:40.413Z,101312.84
2023-04-05T23:39:12.895Z,101263.38
2023-04-05T23:41:44.572Z,101273.94
2023-04-05T23:44:15.955Z,101309.16
2023-04-05T23:46:47.403Z,101280.75
2023-04-05T23:49:20.254Z,101283.44
2023-04-05T23:51:51.691Z,101296.47
2023-04-05T23:54:23.245Z,101270.84
2023-04-05T23:56:54.942Z,101216.91
2023-04-05T23:59:26.654Z,101270.84
